Time;durP1;ratioP1;P1;durP2;ratioP2;P2;SDS_P1;SDS_P2;PMS_P1;PMS_P2;Temp;Humidity;BMP_temperature;BMP_pressure;BME280_temperature;BME280_humidity;BME280_pressure;Samples;Min_cycle;Max_cycle;Signal;HPM_P1;HPM_P2
2022/03/12 00:01:25;;;;;;;;;;;;;;;2.25;39.76;101996.25;1674152;84;20500;-87
2022/03/12 00:03:50;;;;;;;;;;;;;;;2.29;39.56;101994.78;1672754;84;20178;-85
2022/03/12 00:06:17;;;;;;;;;;;;;;;2.30;39.49;101993.02;1674203;83;22375;-86
2022/03/12 00:08:44;;;;;;;;;;;;;;;2.27;39.63;101987.91;1675816;83;20183;-89
2022/03/12 00:11:19;;;;;;;;;;;;;;;2.21;40.28;101983.80;1675748;84;20173;-84
2022/03/12 00:13:45;;;;;;;;;;;;;;;2.23;40.08;101981.14;1672205;84;20157;-91
2022/03/12 00:16:18;;;;;;;;;;;;;;;2.20;40.35;101989.06;1680240;84;20171;-88
2022/03/12 00:18:44;;;;;;;;;;;;;;;2.17;40.26;101987.88;1675208;83;21326;-85
2022/03/12 00:21:12;;;;;;;;;;;;;;;1.96;40.44;101961.70;1676180;84;20123;-90
2022/03/12 00:23:44;;;;;;;;;;;;;;;2.15;40.42;101991.84;1679815;83;20171;-86
2022/03/12 00:26:14;;;;;;;;;;;;;;;1.93;41.61;101985.27;1680850;84;20191;-86
2022/03/12 00:28:39;;;;;;;;;;;;;;;1.65;42.18;101984.93;1675237;83;20479;-87
2022/03/12 00:31:06;;;;;;;;;;;;;;;1.65;42.31;101991.44;1680513;83;21131;-90
2022/03/12 00:33:32;;;;;;;;;;;;;;;1.53;42.55;101980.14;1675314;83;20587;-89
2022/03/12 00:35:58;;;;;;;;;;;;;;;1.37;43.23;101974.61;1677316;83;21345;-86
2022/03/12 00:38:24;;;;;;;;;;;;;;;1.33;43.26;101972.55;1672884;83;20191;-87
2022/03/12 00:40:50;;;;;;;;;;;;;;;1.32;43.27;101970.86;1670502;83;20167;-89
2022/03/12 00:43:18;;;;;;;;;;;;;;;1.32;43.25;101969.56;1672903;83;21013;-88
2022/03/12 00:45:46;;;;;;;;;;;;;;;1.29;43.28;101972.27;1681337;83;20156;-86
2022/03/12 00:48:12;;;;;;;;;;;;;;;1.23;43.66;101969.87;1682969;83;20175;-85
2022/03/12 00:50:38;;;;;;;;;;;;;;;1.05;43.98;101961.74;1718797;83;20312;-90
2022/03/12 00:53:04;;;;;;;;;;;;;;;1.00;44.30;101961.05;1718604;83;20236;-87
2022/03/12 00:55:29;;;;;;;;;;;;;;;0.95;44.32;101962.96;1715998;83;21871;-90
2022/03/12 00:57:55;;;;;;;;;;;;;;;1.13;43.56;101967.16;1718562;83;20105;-87
2022/03/12 01:00:22;;;;;;;;;;;;;;;1.27;43.16;101969.30;1711672;83;20194;-92
2022/03/12 01:02:47;;;;;;;;;;;;;;;1.36;42.89;101969.84;1715295;83;20176;-89
2022/03/12 01:05:18;;;;;;;;;;;;;;;1.46;42.70;101966.92;1697000;82;20369;-86
2022/03/12 01:07:44;;;;;;;;;;;;;;;1.49;42.50;101959.88;1716287;83;21241;-87
2022/03/12 01:10:10;;;;;;;;;;;;;;;1.53;42.53;101966.66;1718005;83;20139;-88
2022/03/12 01:12:36;;;;;;;;;;;;;;;1.58;42.23;101965.20;1717811;83;20765;-88
2022/03/12 01:15:04;;;;;;;;;;;;;;;1.62;42.05;101960.30;1716467;83;20200;-91
2022/03/12 01:17:32;;;;;;;;;;;;;;;1.63;41.96;101964.58;1717100;82;20469;-87
2022/03/12 01:19:59;;;;;;;;;;;;;;;1.61;41.94;101960.73;1714631;83;20491;-87
2022/03/12 01:22:26;;;;;;;;;;;;;;;1.65;41.75;101961.49;1718601;83;20491;-82
2022/03/12 01:24:52;;;;;;;;;;;;;;;1.66;41.53;101954.06;1719571;83;20481;-90
2022/03/12 01:27:17;;;;;;;;;;;;;;;1.67;41.68;101951.02;1715927;83;20140;-91
2022/03/12 01:29:43;;;;;;;;;;;;;;;1.67;41.65;101951.86;1714809;83;20144;-92
2022/03/12 01:32:09;;;;;;;;;;;;;;;1.68;41.74;101948.36;1716093;83;22187;-84
2022/03/12 01:34:35;;;;;;;;;;;;;;;1.66;41.79;101948.84;1716265;83;20120;-93
2022/03/12 01:37:00;;;;;;;;;;;;;;;1.67;41.71;101944.05;1720142;83;20857;-86
2022/03/12 01:39:27;;;;;;;;;;;;;;;1.71;41.55;101950.86;1717121;83;20278;-89
2022/03/12 01:41:52;;;;;;;;;;;;;;;1.68;41.68;101952.70;1720560;82;20185;-92
2022/03/12 01:44:18;;;;;;;;;;;;;;;1.67;41.81;101951.86;1714231;83;21276;-87
2022/03/12 01:46:45;;;;;;;;;;;;;;;1.64;41.90;101951.97;1718962;83;20124;-91
2022/03/12 01:49:23;;;;;;;;;;;;;;;1.63;41.99;101953.33;1711458;83;20179;-90
2022/03/12 01:51:51;;;;;;;;;;;;;;;1.62;41.90;101945.97;1705327;83;20910;-90
2022/03/12 01:54:19;;;;;;;;;;;;;;;1.53;42.43;101952.80;1694072;83;20180;-87
2022/03/12 01:56:45;;;;;;;;;;;;;;;1.54;42.28;101942.77;1713330;83;21180;-91
2022/03/12 01:59:11;;;;;;;;;;;;;;;1.56;42.19;101948.80;1711425;83;20467;-90
2022/03/12 02:01:37;;;;;;;;;;;;;;;1.53;42.25;101952.80;1712482;83;20471;-90
2022/03/12 02:04:04;;;;;;;;;;;;;;;1.52;42.30;101944.58;1711081;83;20124;-90
2022/03/12 02:06:29;;;;;;;;;;;;;;;1.51;42.40;101946.34;1714549;83;20225;-85
2022/03/12 02:08:58;;;;;;;;;;;;;;;1.50;42.47;101947.70;1713248;83;21897;-90
2022/03/12 02:11:27;;;;;;;;;;;;;;;1.50;42.67;101950.30;1709229;83;20293;-87
2022/03/12 02:14:08;;;;;;;;;;;;;;;1.40;42.69;101953.22;1710382;83;20908;-92
2022/03/12 02:16:34;;;;;;;;;;;;;;;1.31;43.30;101950.94;1717863;82;20085;-92
2022/03/12 02:18:59;;;;;;;;;;;;;;;0.99;45.12;101954.13;1711258;82;20380;-85
2022/03/12 02:21:40;;;;;;;;;;;;;;;0.82;45.48;101940.83;1711250;83;21177;-91
2022/03/12 02:24:08;;;;;;;;;;;;;;;0.63;46.15;101944.01;1711498;83;20136;-91
2022/03/12 02:26:33;;;;;;;;;;;;;;;0.73;46.10;101941.13;1714875;83;20195;-91
2022/03/12 02:28:59;;;;;;;;;;;;;;;0.70;46.22;101939.48;1709358;83;20113;-87
2022/03/12 02:31:29;;;;;;;;;;;;;;;0.61;46.64;101932.81;1711715;83;20144;-82
2022/03/12 02:33:54;;;;;;;;;;;;;;;0.54;47.16;101936.49;1711216;83;20164;-95
2022/03/12 02:36:26;;;;;;;;;;;;;;;0.43;47.68;101933.38;1710779;83;20326;-91
2022/03/12 02:38:48;;;;;;;;;;;;;;;0.34;47.67;101937.97;1712537;82;20179;-93
2022/03/12 02:41:15;;;;;;;;;;;;;;;0.38;47.36;101927.48;1686730;83;20132;-91
2022/03/12 02:43:46;;;;;;;;;;;;;;;0.43;47.28;101924.28;1707527;82;20169;-95
2022/03/12 02:46:14;;;;;;;;;;;;;;;0.37;47.30;101920.57;1714830;83;21326;-94
2022/03/12 02:48:41;;;;;;;;;;;;;;;0.46;46.95;101918.53;1707933;82;20183;-95
2022/03/12 02:51:06;;;;;;;;;;;;;;;0.61;46.51;101915.91;1667671;83;20158;-95
2022/03/12 02:53:33;;;;;;;;;;;;;;;0.71;46.15;101921.23;1695496;83;20251;-92
2022/03/12 02:55:58;;;;;;;;;;;;;;;0.81;45.85;101923.52;1687937;83;20235;-89
2022/03/12 02:58:24;;;;;;;;;;;;;;;0.88;45.67;101923.73;1691706;83;20553;-91
2022/03/12 03:00:49;;;;;;;;;;;;;;;0.94;45.39;101928.73;1694453;83;20113;-90
2022/03/12 03:03:15;;;;;;;;;;;;;;;0.97;45.26;101925.19;1689890;83;20182;-87
2022/03/12 03:05:46;;;;;;;;;;;;;;;0.99;45.12;101922.92;1686702;83;20221;-84
2022/03/12 03:08:18;;;;;;;;;;;;;;;1.00;45.19;101918.13;1694050;83;20215;-81
2022/03/12 03:10:44;;;;;;;;;;;;;;;0.98;45.03;101917.34;1693581;83;20161;-92
2022/03/12 03:13:20;;;;;;;;;;;;;;;1.01;44.97;101915.94;1692285;83;20206;-87
2022/03/12 03:16:00;;;;;;;;;;;;;;;1.01;45.11;101915.94;1693421;83;20199;-93
2022/03/12 03:18:31;;;;;;;;;;;;;;;0.86;45.58;101917.28;1692329;83;20660;-88
2022/03/12 03:20:57;;;;;;;;;;;;;;;0.88;45.64;101909.42;1689779;83;20187;-93
2022/03/12 03:23:24;;;;;;;;;;;;;;;0.49;46.71;101914.54;1688901;83;21053;-88
2022/03/12 03:25:49;;;;;;;;;;;;;;;0.31;46.88;101913.38;1662278;83;20168;-88
2022/03/12 03:28:15;;;;;;;;;;;;;;;0.21;46.99;101908.04;1694218;83;20190;-88
2022/03/12 03:30:42;;;;;;;;;;;;;;;0.38;46.45;101903.63;1692766;83;20162;-89
2022/03/12 03:33:09;;;;;;;;;;;;;;;0.29;46.71;101907.34;1692869;83;20429;-91
2022/03/12 03:35:36;;;;;;;;;;;;;;;0.28;46.56;101909.56;1685880;83;20542;-89
2022/03/12 03:38:02;;;;;;;;;;;;;;;0.33;46.31;101910.27;1685644;83;20210;-90
2022/03/12 03:40:28;;;;;;;;;;;;;;;0.40;46.03;101902.28;1691716;83;20291;-83
2022/03/12 03:42:54;;;;;;;;;;;;;;;0.31;46.16;101897.78;1687359;83;20106;-91
2022/03/12 03:45:21;;;;;;;;;;;;;;;0.28;46.53;101901.77;1695940;83;20206;-88
2022/03/12 03:47:47;;;;;;;;;;;;;;;0.17;46.66;101893.43;1691026;83;21206;-93
2022/03/12 03:50:13;;;;;;;;;;;;;;;-0.07;46.76;101888.07;1707387;81;20173;-94
2022/03/12 03:52:39;;;;;;;;;;;;;;;-0.11;46.77;101894.70;1719350;83;20187;-91
2022/03/12 03:55:05;;;;;;;;;;;;;;;0.05;46.11;101897.27;1719748;81;20108;-91
2022/03/12 03:57:31;;;;;;;;;;;;;;;0.13;45.70;101894.44;1723473;81;20187;-90
2022/03/12 03:59:57;;;;;;;;;;;;;;;0.21;45.44;101898.11;1718845;83;20829;-92
2022/03/12 04:02:22;;;;;;;;;;;;;;;0.26;45.41;101898.35;1723782;83;20120;-87
2022/03/12 04:04:49;;;;;;;;;;;;;;;0.31;45.35;101900.38;1715851;82;20170;-90
2022/03/12 04:07:15;;;;;;;;;;;;;;;0.35;45.45;101904.56;1721146;81;20572;-91
2022/03/12 04:09:41;;;;;;;;;;;;;;;0.25;45.99;101904.89;1728166;81;20231;-91
2022/03/12 04:12:07;;;;;;;;;;;;;;;0.03;45.98;101911.18;1725294;83;21105;-85
2022/03/12 04:14:33;;;;;;;;;;;;;;;-0.08;46.40;101907.59;1724364;82;20125;-87
2022/03/12 04:17:00;;;;;;;;;;;;;;;-0.25;46.44;101910.66;1722027;81;20264;-87
2022/03/12 04:19:29;;;;;;;;;;;;;;;-0.36;46.79;101912.25;1717491;78;20211;-83
2022/03/12 04:21:57;;;;;;;;;;;;;;;-0.37;47.52;101912.72;1721422;82;20166;-88
2022/03/12 04:24:26;;;;;;;;;;;;;;;-0.44;48.12;101908.57;1717514;82;21231;-92
2022/03/12 04:26:52;;;;;;;;;;;;;;;-0.45;48.67;101909.91;1722853;81;20115;-85
2022/03/12 04:29:18;;;;;;;;;;;;;;;-0.47;48.71;101906.06;1727013;81;20215;-89
2022/03/12 04:31:48;;;;;;;;;;;;;;;-0.52;49.40;101905.34;1717572;82;20561;-90
2022/03/12 04:34:17;;;;;;;;;;;;;;;-0.67;50.32;101901.86;1718057;82;20213;-96
2022/03/12 04:36:42;;;;;;;;;;;;;;;-0.82;50.77;101903.97;1718664;81;21148;-83
2022/03/12 04:39:10;;;;;;;;;;;;;;;-0.82;50.50;101898.78;1715534;82;20582;-92
2022/03/12 04:41:37;;;;;;;;;;;;;;;-0.61;49.57;101901.70;1716201;82;20139;-95
2022/03/12 04:44:04;;;;;;;;;;;;;;;-0.45;49.00;101908.61;1714164;83;20504;-84
2022/03/12 04:46:32;;;;;;;;;;;;;;;-0.40;48.84;101911.50;1718093;81;20267;-87
2022/03/12 04:48:57;;;;;;;;;;;;;;;-0.28;48.38;101906.85;1687930;83;22415;-86
2022/03/12 04:51:23;;;;;;;;;;;;;;;-0.21;48.47;101912.30;1712368;81;20376;-82
2022/03/12 04:53:49;;;;;;;;;;;;;;;-0.14;48.65;101915.13;1714952;81;20219;-86
2022/03/12 04:56:15;;;;;;;;;;;;;;;-0.17;49.30;101916.52;1706413;83;20439;-87
2022/03/12 04:58:41;;;;;;;;;;;;;;;-0.13;49.18;101914.22;1718343;82;20247;-84
2022/03/12 05:01:07;;;;;;;;;;;;;;;-0.07;48.95;101904.11;1718732;81;21124;-87
2022/03/12 05:03:32;;;;;;;;;;;;;;;-0.10;49.46;101906.34;1721093;82;20453;-94
2022/03/12 05:05:59;;;;;;;;;;;;;;;-0.02;49.01;101900.50;1709148;82;20273;-87
2022/03/12 05:08:31;;;;;;;;;;;;;;;0.00;49.32;101899.16;1706863;81;20236;-83
2022/03/12 05:10:55;;;;;;;;;;;;;;;-0.02;49.68;101894.00;1720318;83;20165;-92
2022/03/12 05:13:27;;;;;;;;;;;;;;;-0.10;50.21;101898.55;1715993;82;21129;-94
2022/03/12 05:15:56;;;;;;;;;;;;;;;-0.01;49.75;101889.19;1722384;82;20464;-92
2022/03/12 05:18:23;;;;;;;;;;;;;;;-0.02;49.96;101885.34;1717508;82;20113;-82
2022/03/12 05:20:50;;;;;;;;;;;;;;;-0.06;50.27;101876.80;1684111;83;20168;-85
2022/03/12 05:23:17;;;;;;;;;;;;;;;-0.03;50.08;101881.91;1717935;83;20235;-84
2022/03/12 05:25:44;;;;;;;;;;;;;;;0.03;49.80;101869.62;1724774;81;21202;-82
2022/03/12 05:28:13;;;;;;;;;;;;;;;0.07;49.46;101876.44;1716839;82;20216;-85
2022/03/12 05:30:39;;;;;;;;;;;;;;;0.10;49.43;101882.84;1715673;82;20102;-83
2022/03/12 05:33:05;;;;;;;;;;;;;;;0.15;49.20;101886.14;1719245;82;20239;-83
2022/03/12 05:35:33;;;;;;;;;;;;;;;0.17;49.12;101881.31;1716432;82;20135;-93
2022/03/12 05:37:58;;;;;;;;;;;;;;;0.21;48.87;101884.66;1715089;82;20247;-86
2022/03/12 05:40:29;;;;;;;;;;;;;;;0.24;48.90;101880.67;1713226;82;20198;-90
2022/03/12 05:42:55;;;;;;;;;;;;;;;0.28;48.76;101890.51;1716389;82;20208;-86
2022/03/12 05:45:22;;;;;;;;;;;;;;;0.32;48.72;101886.47;1716305;82;20351;-88
2022/03/12 05:47:49;;;;;;;;;;;;;;;0.31;48.98;101886.09;1707453;81;20188;-87
2022/03/12 05:50:16;;;;;;;;;;;;;;;0.35;48.67;101899.38;1715336;82;22424;-87
2022/03/12 05:52:47;;;;;;;;;;;;;;;0.40;48.54;101897.09;1711570;82;20562;-86
2022/03/12 05:55:13;;;;;;;;;;;;;;;0.33;48.79;101899.88;1697223;83;20204;-86
2022/03/12 05:57:40;;;;;;;;;;;;;;;0.40;48.65;101897.09;1717788;81;21235;-87
2022/03/12 06:00:11;;;;;;;;;;;;;;;0.45;48.52;101895.19;1712707;82;20265;-86
2022/03/12 06:02:34;;;;;;;;;;;;;;;0.32;49.13;101890.37;1720158;81;20105;-88
2022/03/12 06:05:00;;;;;;;;;;;;;;;0.13;49.40;101887.95;1717557;82;20789;-88
2022/03/12 06:07:27;;;;;;;;;;;;;;;0.09;49.60;101893.66;1712733;81;20168;-84
2022/03/12 06:09:52;;;;;;;;;;;;;;;0.09;49.60;101903.20;1713983;82;20197;-88
2022/03/12 06:12:18;;;;;;;;;;;;;;;0.07;50.20;101899.81;1706993;82;20205;-85
2022/03/12 06:14:50;;;;;;;;;;;;;;;0.16;49.91;101894.34;1706681;82;20488;-87
2022/03/12 06:17:13;;;;;;;;;;;;;;;0.14;50.18;101888.33;1721634;81;20576;-86
2022/03/12 06:19:38;;;;;;;;;;;;;;;0.08;50.43;101885.91;1711401;83;20214;-88
2022/03/12 06:22:07;;;;;;;;;;;;;;;0.03;50.53;101885.20;1700938;82;20161;-87
2022/03/12 06:24:32;;;;;;;;;;;;;;;0.13;50.24;101873.66;1714638;83;20133;-87
2022/03/12 06:27:00;;;;;;;;;;;;;;;-0.27;50.26;101877.41;1712304;82;21840;-86
2022/03/12 06:29:27;;;;;;;;;;;;;;;-0.30;50.87;101874.91;1705697;83;20116;-84
2022/03/12 06:31:52;;;;;;;;;;;;;;;-0.32;50.67;101876.70;1712624;83;20201;-88
2022/03/12 06:34:18;;;;;;;;;;;;;;;-0.09;50.22;101878.19;1709245;83;20169;-88
2022/03/12 06:36:44;;;;;;;;;;;;;;;0.12;49.58;101874.54;1710829;82;20633;-89
2022/03/12 06:39:10;;;;;;;;;;;;;;;0.10;49.09;101874.59;1707667;83;21969;-86
2022/03/12 06:41:38;;;;;;;;;;;;;;;0.31;48.74;101880.02;1702426;83;20300;-88
2022/03/12 06:44:03;;;;;;;;;;;;;;;0.28;48.66;101882.71;1710253;83;20447;-88
2022/03/12 06:46:29;;;;;;;;;;;;;;;0.35;48.50;101882.48;1706795;82;20204;-85
2022/03/12 06:48:54;;;;;;;;;;;;;;;0.50;48.16;101876.42;1701533;83;20186;-87
2022/03/12 06:51:21;;;;;;;;;;;;;;;0.60;47.81;101884.31;1705478;83;21025;-88
2022/03/12 06:53:51;;;;;;;;;;;;;;;0.75;47.58;101894.68;1701820;83;20186;-89
2022/03/12 06:56:16;;;;;;;;;;;;;;;0.88;47.50;101893.82;1700265;82;20512;-87
2022/03/12 06:58:44;;;;;;;;;;;;;;;1.01;47.20;101902.93;1706271;83;20192;-88
2022/03/12 07:01:10;;;;;;;;;;;;;;;1.11;46.89;101907.83;1701421;83;20180;-86
2022/03/12 07:03:35;;;;;;;;;;;;;;;1.17;46.66;101918.03;1704655;83;22445;-87
2022/03/12 07:06:03;;;;;;;;;;;;;;;1.29;46.56;101916.31;1708647;82;20164;-87
2022/03/12 07:08:28;;;;;;;;;;;;;;;1.42;46.52;101918.88;1711800;83;20164;-85
2022/03/12 07:10:54;;;;;;;;;;;;;;;1.50;46.51;101919.06;1705451;83;20474;-86
2022/03/12 07:13:20;;;;;;;;;;;;;;;1.61;46.37;101914.32;1708919;83;20134;-91
2022/03/12 07:15:45;;;;;;;;;;;;;;;1.69;46.23;101913.58;1708495;82;21144;-87
2022/03/12 07:18:11;;;;;;;;;;;;;;;1.74;46.38;101913.42;1708633;83;20152;-88
2022/03/12 07:20:38;;;;;;;;;;;;;;;1.85;46.55;101913.90;1707920;82;20305;-88
2022/03/12 07:23:05;;;;;;;;;;;;;;;1.87;46.93;101915.14;1720995;82;20640;-88
2022/03/12 07:25:31;;;;;;;;;;;;;;;2.06;47.03;101916.61;1720199;82;20526;-87
2022/03/12 07:27:56;;;;;;;;;;;;;;;2.02;47.68;101913.28;1725950;82;21252;-87
2022/03/12 07:30:22;;;;;;;;;;;;;;;2.15;47.53;101905.38;1724811;82;20502;-85
2022/03/12 07:32:48;;;;;;;;;;;;;;;2.27;47.17;101899.28;1723042;82;20311;-85
2022/03/12 07:35:15;;;;;;;;;;;;;;;2.37;47.05;101901.11;1726695;82;20167;-86
2022/03/12 07:37:41;;;;;;;;;;;;;;;2.48;46.50;101903.67;1726110;82;20188;-86
2022/03/12 07:40:09;;;;;;;;;;;;;;;2.60;46.15;101900.20;1725443;82;21086;-85
2022/03/12 07:42:35;;;;;;;;;;;;;;;2.66;45.86;101911.70;1723263;82;20081;-84
2022/03/12 07:45:03;;;;;;;;;;;;;;;2.70;46.00;101915.86;1724596;82;20176;-86
2022/03/12 07:47:29;;;;;;;;;;;;;;;2.85;45.74;101915.23;1725441;82;20754;-89
2022/03/12 07:49:57;;;;;;;;;;;;;;;2.83;45.28;101915.77;1706279;82;20097;-85
2022/03/12 07:52:25;;;;;;;;;;;;;;;2.86;44.28;101912.20;1718244;82;21401;-87
2022/03/12 07:54:50;;;;;;;;;;;;;;;2.97;44.24;101907.84;1724501;82;20137;-86
2022/03/12 07:57:16;;;;;;;;;;;;;;;3.03;43.94;101906.25;1721870;82;20616;-84
2022/03/12 07:59:44;;;;;;;;;;;;;;;3.03;43.75;101905.81;1723486;81;20601;-86
2022/03/12 08:02:10;;;;;;;;;;;;;;;3.02;42.63;101905.88;1721608;82;20188;-86
2022/03/12 08:04:36;;;;;;;;;;;;;;;3.13;42.58;101906.73;1722203;82;21493;-86
2022/03/12 08:07:02;;;;;;;;;;;;;;;3.20;42.15;101906.41;1725275;82;20519;-85
2022/03/12 08:09:30;;;;;;;;;;;;;;;3.23;42.15;101897.14;1723127;82;20965;-85
2022/03/12 08:11:57;;;;;;;;;;;;;;;3.43;41.95;101904.56;1722268;82;20200;-84
2022/03/12 08:14:23;;;;;;;;;;;;;;;3.50;41.02;101903.39;1721931;82;20322;-86
2022/03/12 08:16:51;;;;;;;;;;;;;;;3.43;40.57;101905.86;1723938;82;21955;-85
2022/03/12 08:19:17;;;;;;;;;;;;;;;3.51;39.86;101895.95;1723691;82;20132;-86
2022/03/12 08:21:43;;;;;;;;;;;;;;;3.72;39.82;101898.53;1715434;82;20218;-84
2022/03/12 08:24:10;;;;;;;;;;;;;;;3.86;40.20;101897.44;1717623;82;20189;-86
2022/03/12 08:26:41;;;;;;;;;;;;;;;3.92;39.19;101891.94;1708984;83;20533;-86
2022/03/12 08:29:03;;;;;;;;;;;;;;;4.06;39.33;101895.70;1711759;83;20517;-87
2022/03/12 08:31:29;;;;;;;;;;;;;;;4.17;39.40;101894.73;1712590;82;20233;-87
2022/03/12 08:33:55;;;;;;;;;;;;;;;4.20;38.71;101894.59;1701841;83;20231;-85
2022/03/12 08:36:20;;;;;;;;;;;;;;;4.23;38.54;101902.28;1702226;83;20201;-86
2022/03/12 08:38:46;;;;;;;;;;;;;;;4.27;38.58;101898.62;1707924;83;20644;-84
2022/03/12 08:41:11;;;;;;;;;;;;;;;4.39;38.65;101898.95;1703508;82;21330;-89
2022/03/12 08:43:37;;;;;;;;;;;;;;;4.56;38.71;101902.07;1702079;83;20158;-85
2022/03/12 08:46:05;;;;;;;;;;;;;;;4.51;37.51;101898.37;1711805;83;20288;-86
2022/03/12 08:48:31;;;;;;;;;;;;;;;4.65;37.83;101906.39;1703710;83;20648;-88
2022/03/12 08:50:57;;;;;;;;;;;;;;;4.61;36.80;101911.84;1707252;82;20483;-86
2022/03/12 08:53:22;;;;;;;;;;;;;;;4.66;36.94;101910.71;1706041;83;22047;-83
2022/03/12 08:55:48;;;;;;;;;;;;;;;4.58;37.24;101901.05;1701760;83;20214;-83
2022/03/12 08:58:14;;;;;;;;;;;;;;;4.80;37.23;101909.17;1705479;83;20326;-86
2022/03/12 09:00:40;;;;;;;;;;;;;;;4.75;36.44;101901.55;1710664;82;20216;-86
2022/03/12 09:03:05;;;;;;;;;;;;;;;4.83;36.62;101895.94;1706060;83;20179;-85
2022/03/12 09:05:31;;;;;;;;;;;;;;;4.96;36.63;101893.58;1706505;83;22383;-89
2022/03/12 09:07:57;;;;;;;;;;;;;;;5.06;36.32;101893.95;1706707;83;20148;-89
2022/03/12 09:10:23;;;;;;;;;;;;;;;5.07;35.00;101890.42;1713045;83;20165;-84
2022/03/12 09:12:48;;;;;;;;;;;;;;;5.06;34.62;101891.34;1709406;83;20134;-86
2022/03/12 09:15:16;;;;;;;;;;;;;;;4.99;34.54;101885.09;1705782;83;21103;-86
2022/03/12 09:17:42;;;;;;;;;;;;;;;5.21;35.14;101882.70;1693122;83;21185;-84
2022/03/12 09:20:08;;;;;;;;;;;;;;;5.37;35.24;101887.52;1708463;83;20164;-85
2022/03/12 09:22:34;;;;;;;;;;;;;;;5.38;34.40;101889.70;1718652;81;20550;-83
2022/03/12 09:25:01;;;;;;;;;;;;;;;5.37;34.38;101885.38;1726058;81;20209;-82
2022/03/12 09:27:27;;;;;;;;;;;;;;;5.35;33.61;101882.83;1722250;82;20150;-83
2022/03/12 09:29:53;;;;;;;;;;;;;;;5.22;33.19;101884.41;1719516;81;21967;-82
2022/03/12 09:32:19;;;;;;;;;;;;;;;5.33;33.66;101895.17;1718374;81;20150;-86
2022/03/12 09:34:44;;;;;;;;;;;;;;;5.51;33.60;101889.42;1718994;81;20510;-83
2022/03/12 09:37:10;;;;;;;;;;;;;;;5.55;33.44;101884.89;1721489;81;20203;-85
2022/03/12 09:39:36;;;;;;;;;;;;;;;5.55;32.80;101883.58;1720099;81;20612;-84
2022/03/12 09:42:01;;;;;;;;;;;;;;;5.41;32.63;101882.98;1719707;82;22417;-85
2022/03/12 09:44:27;;;;;;;;;;;;;;;5.58;33.26;101876.39;1722709;81;20421;-84
2022/03/12 09:46:53;;;;;;;;;;;;;;;5.67;32.96;101871.14;1724111;81;20254;-84
2022/03/12 09:49:19;;;;;;;;;;;;;;;5.82;32.86;101869.92;1718930;82;20728;-83
2022/03/12 09:51:44;;;;;;;;;;;;;;;5.81;31.87;101863.84;1723921;82;20140;-84
2022/03/12 09:54:11;;;;;;;;;;;;;;;5.81;31.72;101855.11;1723651;82;21156;-87
2022/03/12 09:56:37;;;;;;;;;;;;;;;6.06;32.04;101852.02;1721462;81;20256;-86
2022/03/12 09:59:04;;;;;;;;;;;;;;;6.05;31.29;101851.19;1722947;82;20312;-87
2022/03/12 10:01:29;;;;;;;;;;;;;;;6.06;32.11;101841.09;1708387;82;20209;-85
2022/03/12 10:03:55;;;;;;;;;;;;;;;6.20;31.84;101836.83;1723174;82;20175;-87
2022/03/12 10:06:21;;;;;;;;;;;;;;;6.34;31.49;101832.12;1723070;82;21939;-86
2022/03/12 10:08:46;;;;;;;;;;;;;;;6.41;31.13;101825.59;1722404;81;20148;-84
2022/03/12 10:11:13;;;;;;;;;;;;;;;6.31;31.10;101820.04;1724080;82;20203;-85
2022/03/12 10:13:38;;;;;;;;;;;;;;;6.28;30.36;101817.59;1718752;81;20981;-86
2022/03/12 10:16:04;;;;;;;;;;;;;;;6.09;29.92;101813.37;1714402;82;20130;-85
2022/03/12 10:18:30;;;;;;;;;;;;;;;6.19;30.20;101814.17;1718858;81;21122;-86
2022/03/12 10:20:57;;;;;;;;;;;;;;;6.38;30.51;101816.11;1723939;81;20203;-89
2022/03/12 10:23:23;;;;;;;;;;;;;;;6.40;30.36;101810.78;1704881;82;20174;-94
2022/03/12 10:25:49;;;;;;;;;;;;;;;6.52;30.43;101806.61;1712131;83;20144;-84
2022/03/12 10:28:15;;;;;;;;;;;;;;;6.69;30.49;101801.22;1699826;83;20475;-89
2022/03/12 10:30:42;;;;;;;;;;;;;;;6.60;29.50;101804.38;1680647;83;40655;-88
2022/03/12 10:33:07;;;;;;;;;;;;;;;6.75;29.83;101800.02;1701682;83;20132;-87
2022/03/12 10:35:35;;;;;;;;;;;;;;;6.81;28.99;101795.24;1708846;83;20711;-85
2022/03/12 10:38:00;;;;;;;;;;;;;;;6.98;29.62;101794.72;1710764;83;20252;-85
2022/03/12 10:40:27;;;;;;;;;;;;;;;7.13;29.36;101789.85;1708726;83;20235;-88
2022/03/12 10:42:56;;;;;;;;;;;;;;;7.15;29.01;101790.59;1710110;83;21136;-90
2022/03/12 10:45:24;;;;;;;;;;;;;;;7.27;29.00;101788.14;1701641;83;20496;-88
2022/03/12 10:47:53;;;;;;;;;;;;;;;7.36;28.24;101787.58;1707342;83;20125;-86
2022/03/12 10:50:22;;;;;;;;;;;;;;;7.15;27.32;101782.71;1709392;83;20145;-84
2022/03/12 10:52:49;;;;;;;;;;;;;;;7.22;27.14;101786.28;1701110;83;21021;-85
2022/03/12 10:55:24;;;;;;;;;;;;;;;7.19;27.26;101773.72;1702344;83;21159;-87
2022/03/12 10:58:01;;;;;;;;;;;;;;;7.24;28.02;101775.20;1703329;83;20541;-85
2022/03/12 11:00:30;;;;;;;;;;;;;;;7.27;27.37;101778.95;1706718;83;20134;-84
2022/03/12 11:02:57;;;;;;;;;;;;;;;7.32;27.08;101783.47;1704645;83;20143;-85
2022/03/12 11:05:33;;;;;;;;;;;;;;;7.48;27.44;101785.51;1701556;83;20281;-87
2022/03/12 11:08:15;;;;;;;;;;;;;;;7.53;26.54;101789.16;1701826;83;20148;-88
2022/03/12 11:10:57;;;;;;;;;;;;;;;7.62;26.45;101781.19;1712239;83;20315;-91
2022/03/12 11:13:27;;;;;;;;;;;;;;;7.64;25.80;101784.55;1705979;83;20119;-85
2022/03/12 11:16:07;;;;;;;;;;;;;;;7.64;26.10;101781.92;1703722;83;20117;-84
2022/03/12 11:18:33;;;;;;;;;;;;;;;7.72;26.36;101771.75;1702534;83;20223;-90
2022/03/12 11:20:59;;;;;;;;;;;;;;;7.53;26.46;101772.91;1705598;83;21216;-92
2022/03/12 11:23:27;;;;;;;;;;;;;;;7.66;26.36;101762.94;1703525;82;20288;-89
2022/03/12 11:26:04;;;;;;;;;;;;;;;7.79;26.46;101755.13;1708900;83;20186;-81
2022/03/12 11:28:28;;;;;;;;;;;;;;;7.74;26.60;101758.05;1712469;83;20564;-85
2022/03/12 11:30:54;;;;;;;;;;;;;;;7.80;26.65;101751.54;1708523;83;20204;-85
2022/03/12 11:33:20;;;;;;;;;;;;;;;7.93;26.63;101759.50;1694149;83;21041;-84
2022/03/12 11:35:46;;;;;;;;;;;;;;;8.14;26.94;101751.53;1715227;81;20324;-82
2022/03/12 11:38:19;;;;;;;;;;;;;;;8.24;26.44;101749.97;1713175;83;20101;-87
2022/03/12 11:40:46;;;;;;;;;;;;;;;8.24;25.94;101752.59;1707242;83;20526;-82
2022/03/12 11:43:24;;;;;;;;;;;;;;;8.41;26.33;101754.59;1708971;83;20567;-89
2022/03/12 11:45:53;;;;;;;;;;;;;;;8.53;26.50;101755.13;1704403;83;21237;-83
2022/03/12 11:48:18;;;;;;;;;;;;;;;8.66;26.62;101750.34;1714589;83;20137;-86
2022/03/12 11:50:43;;;;;;;;;;;;;;;8.65;26.41;101741.58;1708059;83;20182;-84
2022/03/12 11:53:09;;;;;;;;;;;;;;;8.74;26.74;101734.38;1707929;83;20164;-87
2022/03/12 11:55:34;;;;;;;;;;;;;;;8.71;26.16;101729.80;1702051;83;20313;-84
2022/03/12 11:58:00;;;;;;;;;;;;;;;8.93;26.28;101727.38;1711116;83;21218;-86
2022/03/12 12:00:29;;;;;;;;;;;;;;;8.85;26.34;101720.46;1711232;82;20187;-88
2022/03/12 12:02:55;;;;;;;;;;;;;;;8.91;25.92;101728.42;1708727;82;20209;-88
2022/03/12 12:05:23;;;;;;;;;;;;;;;9.00;26.20;101719.05;1709454;83;20155;-86
2022/03/12 12:07:51;;;;;;;;;;;;;;;8.93;25.53;101714.20;1707220;83;20230;-86
2022/03/12 12:10:17;;;;;;;;;;;;;;;9.00;25.47;101704.56;1710350;83;20955;-88
2022/03/12 12:12:45;;;;;;;;;;;;;;;9.07;25.32;101701.84;1708936;83;20198;-85
2022/03/12 12:15:15;;;;;;;;;;;;;;;9.04;25.15;101694.16;1661783;84;20488;-89
2022/03/12 12:17:39;;;;;;;;;;;;;;;9.05;24.88;101685.30;1714487;83;20164;-86
2022/03/12 12:20:06;;;;;;;;;;;;;;;9.13;25.15;101680.33;1685816;83;21180;-90
2022/03/12 12:22:31;;;;;;;;;;;;;;;9.18;25.28;101680.00;1712870;82;20898;-89
2022/03/12 12:24:57;;;;;;;;;;;;;;;9.40;25.15;101684.56;1714965;83;20144;-89
2022/03/12 12:27:23;;;;;;;;;;;;;;;9.36;23.90;101686.59;1683119;83;20204;-88
2022/03/12 12:29:55;;;;;;;;;;;;;;;9.48;24.03;101685.71;1711700;83;20493;-86
2022/03/12 12:32:25;;;;;;;;;;;;;;;9.56;23.96;101682.52;1707609;83;20241;-86
2022/03/12 12:35:13;;;;;;;;;;;;;;;9.70;23.95;101672.28;1700394;83;21067;-86
2022/03/12 12:37:44;;;;;;;;;;;;;;;9.69;22.89;101674.08;1709943;82;20187;-89
2022/03/12 12:40:29;;;;;;;;;;;;;;;9.67;22.83;101669.38;1702435;83;20218;-87
2022/03/12 12:42:56;;;;;;;;;;;;;;;9.83;22.71;101676.16;1711453;83;20182;-86
2022/03/12 12:45:24;;;;;;;;;;;;;;;10.01;22.80;101668.20;1710770;83;20137;-83